createdAt,value
2018-11-04T00:02:14.165Z,9.93
2018-11-04T00:07:23.823Z,8.20
2018-11-04T00:12:33.382Z,8.77
2018-11-04T00:17:42.966Z,9.73
2018-11-04T00:22:52.412Z,7.43
2018-11-04T00:28:01.987Z,11.10
2018-11-04T00:33:11.519Z,11.60
2018-11-04T00:38:21.213Z,9.60
2018-11-04T00:43:31.224Z,9.83
2018-11-04T00:48:40.785Z,10.33
2018-11-04T00:53:50.480Z,9.57
2018-11-04T00:59:00.352Z,10.67
2018-11-04T01:04:09.953Z,10.63
2018-11-04T01:09:19.694Z,10.43
2018-11-04T01:14:29.308Z,8.60
2018-11-04T01:19:38.802Z,12.93
2018-11-04T01:24:48.996Z,9.30
2018-11-04T01:29:58.346Z,9.90
2018-11-04T01:35:08.362Z,8.43
2018-11-04T01:40:18.265Z,9.90
2018-11-04T01:45:27.834Z,9.37
2018-11-04T01:50:37.347Z,8.67
2018-11-04T01:55:46.751Z,9.77
2018-11-04T02:00:56.456Z,9.13
2018-11-04T02:06:06.039Z,11.33
2018-11-04T02:11:15.584Z,9.77
2018-11-04T02:16:25.053Z,9.67
2018-11-04T02:21:34.586Z,12.00
2018-11-04T02:26:44.237Z,9.87
2018-11-04T02:31:53.658Z,7.63
2018-11-04T02:37:03.235Z,9.17
2018-11-04T02:42:12.745Z,9.00
2018-11-04T02:47:22.522Z,8.13
2018-11-04T02:52:32.049Z,8.80
2018-11-04T02:57:41.679Z,10.30
2018-11-04T03:02:51.158Z,11.70
2018-11-04T03:08:00.831Z,10.20
2018-11-04T03:13:10.329Z,8.33
2018-11-04T03:18:20.277Z,9.77
2018-11-04T03:23:29.942Z,9.67
2018-11-04T03:28:39.478Z,11.30
2018-11-04T03:33:49.077Z,10.13
2018-11-04T03:38:58.703Z,9.97
2018-11-04T03:44:08.066Z,8.93
2018-11-04T03:49:17.727Z,9.13
2018-11-04T03:54:27.093Z,10.03
2018-11-04T03:59:36.770Z,10.23
2018-11-04T04:04:46.126Z,9.50
2018-11-04T04:09:55.497Z,10.27
2018-11-04T04:15:06.102Z,9.10
2018-11-04T04:20:15.605Z,11.07
2018-11-04T04:25:25.039Z,9.50
2018-11-04T04:30:35.901Z,9.90
2018-11-04T04:35:45.455Z,9.87
2018-11-04T04:40:55.149Z,10.30
2018-11-04T04:46:04.673Z,10.50
2018-11-04T04:51:14.014Z,11.20
2018-11-04T04:56:23.637Z,9.47
2018-11-04T05:01:33.373Z,11.47
2018-11-04T05:06:42.874Z,9.20
2018-11-04T05:11:52.236Z,10.40
2018-11-04T05:17:01.950Z,8.97
2018-11-04T05:22:11.383Z,10.83
2018-11-04T05:27:20.813Z,10.27
2018-11-04T05:32:30.810Z,9.63
2018-11-04T05:37:40.297Z,9.77
2018-11-04T05:42:49.690Z,10.37
2018-11-04T05:47:59.235Z,8.03
2018-11-04T05:53:08.870Z,10.40
2018-11-04T05:58:18.517Z,8.50
2018-11-04T06:03:28.970Z,11.83
2018-11-04T06:08:38.494Z,11.40
2018-11-04T06:13:47.995Z,10.17
2018-11-04T06:18:58.313Z,9.87
2018-11-04T06:24:07.933Z,11.57
2018-11-04T06:29:17.797Z,10.03
2018-11-04T06:34:27.775Z,10.73
2018-11-04T06:39:37.209Z,11.17
2018-11-04T06:44:46.839Z,11.13
2018-11-04T06:49:56.221Z,11.50
2018-11-04T06:55:06.759Z,10.23
2018-11-04T07:00:16.183Z,10.87
2018-11-04T07:05:25.564Z,12.43
2018-11-04T07:10:34.922Z,8.07
2018-11-04T07:15:44.463Z,9.97
2018-11-04T07:20:54.098Z,9.83
2018-11-04T07:26:03.474Z,9.97
2018-11-04T07:31:13.133Z,11.23
2018-11-04T07:36:22.711Z,10.83
2018-11-04T07:41:32.300Z,12.87
2018-11-04T07:46:41.942Z,10.20
2018-11-04T07:51:51.306Z,10.57
2018-11-04T07:57:01.061Z,9.57
2018-11-04T08:02:10.458Z,12.17
2018-11-04T08:07:19.812Z,10.57
2018-11-04T08:12:29.162Z,8.90
2018-11-04T08:17:38.814Z,8.83
2018-11-04T08:22:48.318Z,8.80
2018-11-04T08:27:57.692Z,12.20
2018-11-04T08:33:07.373Z,10.93
2018-11-04T08:38:17.015Z,12.50
2018-11-04T08:43:26.469Z,10.83
2018-11-04T08:48:36.092Z,11.13
2018-11-04T08:53:39.932Z,11.53
2018-11-04T08:58:49.499Z,12.37
2018-11-04T09:03:59.055Z,12.90
2018-11-04T09:09:08.866Z,14.23
2018-11-04T09:14:18.496Z,14.00
2018-11-04T09:19:27.868Z,12.77
2018-11-04T09:24:37.265Z,14.43
2018-11-04T09:29:47.029Z,15.20
2018-11-04T09:34:56.706Z,15.45
2018-11-04T09:40:07.989Z,13.83
2018-11-04T09:45:17.519Z,12.57
2018-11-04T09:50:27.190Z,11.83
2018-11-04T09:55:36.738Z,12.83
2018-11-04T10:00:46.417Z,15.13
2018-11-04T10:05:56.138Z,15.23
2018-11-04T10:11:05.855Z,16.33
2018-11-04T10:16:15.246Z,14.83
2018-11-04T10:21:24.927Z,17.33
2018-11-04T10:26:34.508Z,14.77
2018-11-04T10:31:43.869Z,16.03
2018-11-04T10:36:54.327Z,15.13
2018-11-04T10:42:04.029Z,15.90
2018-11-04T10:47:13.554Z,28.63
2018-11-04T10:52:23.153Z,20.00
2018-11-04T10:57:32.794Z,19.90
2018-11-04T11:02:42.226Z,26.33
2018-11-04T11:07:51.679Z,25.20
2018-11-04T11:13:01.133Z,30.77
2018-11-04T11:18:10.723Z,21.30
2018-11-04T11:23:20.424Z,31.10
2018-11-04T11:28:32.095Z,30.77
2018-11-04T11:33:41.645Z,32.93
2018-11-04T11:38:54.175Z,29.37
2018-11-04T11:44:04.033Z,29.43
2018-11-04T11:49:13.701Z,29.70
2018-11-04T11:54:23.317Z,31.93
2018-11-04T11:59:32.870Z,28.47
2018-11-04T12:04:42.637Z,26.87
2018-11-04T12:09:53.878Z,35.03
2018-11-04T12:15:03.870Z,29.87
2018-11-04T12:20:14.055Z,31.37
2018-11-04T12:25:24.125Z,28.43
2018-11-04T12:30:33.706Z,27.93
2018-11-04T12:35:43.326Z,30.67
2018-11-04T12:40:52.737Z,28.03
2018-11-04T12:46:02.284Z,27.40
2018-11-04T12:51:06.675Z,31.70
2018-11-04T12:56:16.261Z,28.77
2018-11-04T13:01:26.509Z,28.27
2018-11-04T13:06:36.348Z,28.17
2018-11-04T13:11:46.098Z,27.47
2018-11-04T13:16:55.662Z,25.27
2018-11-04T13:22:05.138Z,26.57
2018-11-04T13:27:14.659Z,29.47
2018-11-04T13:32:24.308Z,23.40
2018-11-04T13:37:28.312Z,26.67
2018-11-04T13:42:33.966Z,27.20
2018-11-04T13:47:43.511Z,26.83
2018-11-04T13:52:53.213Z,33.97
2018-11-04T13:58:02.820Z,27.30
2018-11-04T14:03:07.348Z,26.60
2018-11-04T14:08:11.299Z,29.23
2018-11-04T14:13:21.305Z,26.23
2018-11-04T14:18:31.177Z,29.10
2018-11-04T14:23:35.237Z,25.93
2018-11-04T14:28:45.086Z,26.57
2018-11-04T14:33:54.658Z,23.87
2018-11-04T14:39:06.216Z,27.13
2018-11-04T14:44:15.645Z,28.27
2018-11-04T14:49:25.229Z,26.83
2018-11-04T14:54:37.106Z,29.33
2018-11-04T14:59:48.323Z,25.73
2018-11-04T15:04:58.185Z,26.67
2018-11-04T15:10:10.294Z,25.03
2018-11-04T15:15:20.553Z,25.43
2018-11-04T15:20:31.103Z,28.67
2018-11-04T15:25:41.609Z,28.52
2018-11-04T15:30:45.895Z,26.43
2018-11-04T15:35:55.775Z,28.63
2018-11-04T15:41:06.186Z,25.90
2018-11-04T15:46:16.925Z,28.63
2018-11-04T15:51:37.497Z,28.07
2018-11-04T15:56:48.033Z,27.50
2018-11-04T16:01:55.198Z,24.17
2018-11-04T16:06:59.855Z,24.80
2018-11-04T16:12:03.715Z,24.57
2018-11-04T16:17:10.442Z,24.47
2018-11-04T16:22:14.496Z,28.30
2018-11-04T16:27:25.293Z,29.33
2018-11-04T16:32:36.205Z,21.93
2018-11-04T16:37:46.441Z,21.97
2018-11-04T16:42:56.235Z,25.50
2018-11-04T16:48:05.816Z,24.20
2018-11-04T16:53:15.615Z,26.00
2018-11-04T16:58:19.562Z,26.47
2018-11-04T17:03:29.290Z,23.57
2018-11-04T17:08:38.790Z,28.60
2018-11-04T17:13:42.799Z,23.07
2018-11-04T17:18:47.214Z,23.43
2018-11-04T17:23:51.128Z,21.80
2018-11-04T17:28:55.033Z,23.10
2018-11-04T17:33:59.324Z,27.03
2018-11-04T17:39:04.203Z,18.90
2018-11-04T17:44:08.893Z,26.83
2018-11-04T17:49:12.734Z,29.13
2018-11-04T17:54:16.812Z,22.83
2018-11-04T17:59:20.768Z,22.37
2018-11-04T18:04:24.831Z,24.27
2018-11-04T18:09:28.798Z,20.40
2018-11-04T18:14:38.122Z,21.03
2018-11-04T18:19:43.566Z,13.57
2018-11-04T18:24:53.284Z,14.03
2018-11-04T18:29:57.166Z,17.27
2018-11-04T18:35:06.847Z,16.70
2018-11-04T18:40:17.771Z,19.40
2018-11-04T18:45:24.949Z,23.67
2018-11-04T18:50:34.635Z,15.63
2018-11-04T18:55:44.287Z,14.77
2018-11-04T19:00:48.336Z,22.60
2018-11-04T19:05:58.050Z,21.90
2018-11-04T19:11:07.764Z,21.13
2018-11-04T19:16:17.331Z,23.17
2018-11-04T19:21:26.975Z,18.33
2018-11-04T19:26:36.683Z,20.67
2018-11-04T19:31:46.152Z,25.00
2018-11-04T19:36:55.905Z,16.33
2018-11-04T19:42:00.138Z,22.07
2018-11-04T19:47:04.025Z,20.53
2018-11-04T19:52:08.012Z,17.53
2018-11-04T19:57:12.136Z,21.47
2018-11-04T20:02:15.979Z,18.07
2018-11-04T20:07:19.878Z,22.27
2018-11-04T20:12:29.014Z,12.73
2018-11-04T20:17:33.350Z,15.03
2018-11-04T20:22:43.366Z,11.53
2018-11-04T20:27:53.028Z,14.23
2018-11-04T20:33:06.257Z,11.77
2018-11-04T20:38:15.829Z,12.97
2018-11-04T20:43:25.640Z,12.00
2018-11-04T20:48:40.715Z,10.70
2018-11-04T20:53:50.472Z,10.67
2018-11-04T20:58:59.945Z,10.10
2018-11-04T21:04:10.114Z,9.07
2018-11-04T21:09:19.856Z,13.17
2018-11-04T21:14:29.393Z,9.53
2018-11-04T21:19:38.724Z,13.60
2018-11-04T21:24:48.488Z,11.27
2018-11-04T21:29:58.084Z,11.83
2018-11-04T21:35:08.151Z,10.50
2018-11-04T21:40:11.994Z,12.43
2018-11-04T21:45:15.878Z,11.00
2018-11-04T21:50:23.083Z,17.87
2018-11-04T21:55:30.500Z,12.07
2018-11-04T22:00:34.109Z,11.60
2018-11-04T22:05:37.941Z,13.97
2018-11-04T22:10:47.379Z,12.20
2018-11-04T22:15:54.785Z,15.67
2018-11-04T22:21:04.240Z,10.57
2018-11-04T22:26:11.612Z,9.60
2018-11-04T22:31:21.042Z,10.00
2018-11-04T22:36:30.537Z,11.10
2018-11-04T22:41:36.865Z,13.10
2018-11-04T22:46:46.560Z,22.10
2018-11-04T22:51:56.404Z,13.90
2018-11-04T22:57:06.006Z,10.80
2018-11-04T23:02:13.189Z,15.80
2018-11-04T23:07:22.719Z,18.63
2018-11-04T23:12:32.400Z,19.80
2018-11-04T23:17:36.267Z,12.30
2018-11-04T23:22:44.523Z,13.50
2018-11-04T23:27:48.450Z,11.93
2018-11-04T23:32:58.220Z,13.80
2018-11-04T23:38:07.832Z,12.40
2018-11-04T23:43:13.029Z,13.90
2018-11-04T23:48:22.615Z,11.07
2018-11-04T23:53:32.121Z,11.37
2018-11-04T23:58:41.685Z,11.20
